Time;durP1;ratioP1;P1;durP2;ratioP2;P2;SDS_P1;SDS_P2;PMS_P1;PMS_P2;Temp;Humidity;BMP_temperature;BMP_pressure;BME280_temperature;BME280_humidity;BME280_pressure;Samples;Min_cycle;Max_cycle;Signal;HPM_P1;HPM_P2
2022/08/04 00:02:12;;;;;;;0.25;0.20;;;;;;;20.20;100.00;101304.56;10513302;28;20746;-77
2022/08/04 00:07:45;;;;;;;0.20;0.10;;;;;;;20.05;100.00;101295.06;10505889;28;20052;-77
2022/08/04 00:12:50;;;;;;;0.10;0.10;;;;;;;19.76;100.00;101308.31;10502475;28;20044;-77
2022/08/04 00:18:04;;;;;;;0.00;0.00;;;;;;;19.83;100.00;101310.03;10535714;28;20054;-76
2022/08/04 00:23:08;;;;;;;0.22;0.22;;;;;;;19.82;100.00;101297.81;10543893;28;20133;-77
2022/08/04 00:28:11;;;;;;;0.17;0.17;;;;;;;19.87;100.00;101296.06;10532994;28;20047;-77
2022/08/04 00:33:19;;;;;;;0.13;0.13;;;;;;;19.91;100.00;101291.69;10529292;28;20418;-77
2022/08/04 00:38:22;;;;;;;0.50;0.30;;;;;;;20.42;100.00;101272.97;10545418;28;20115;-77
2022/08/04 00:43:30;;;;;;;0.57;0.45;;;;;;;20.28;100.00;101266.13;10538238;28;20491;-77
2022/08/04 00:48:50;;;;;;;0.10;0.10;;;;;;;20.25;100.00;101268.75;10547844;28;20046;-77
2022/08/04 00:54:14;;;;;;;0.47;0.15;;;;;;;19.88;100.00;101268.19;10522867;28;20071;-77
2022/08/04 00:59:44;;;;;;;0.30;0.30;;;;;;;19.83;100.00;101270.81;10506596;28;20047;-77
2022/08/04 01:05:01;;;;;;;0.70;0.57;;;;;;;19.72;100.00;101267.38;10531344;28;20048;-77
2022/08/04 01:10:20;;;;;;;0.10;0.10;;;;;;;19.80;100.00;101268.19;10520210;28;20055;-77
2022/08/04 01:15:39;;;;;;;0.32;0.30;;;;;;;19.28;100.00;101265.00;10552709;28;20040;-77
2022/08/04 01:21:04;;;;;;;0.60;0.53;;;;;;;19.71;100.00;101255.19;10515159;28;20138;-77
2022/08/04 01:26:28;;;;;;;0.20;0.20;;;;;;;19.66;100.00;101250.84;10496935;28;20376;-77
2022/08/04 01:32:01;;;;;;;0.45;0.32;;;;;;;19.71;100.00;101243.00;10500236;28;20047;-77
2022/08/04 01:37:12;;;;;;;0.43;0.38;;;;;;;19.95;100.00;101230.66;10534309;28;20040;-78
2022/08/04 01:42:17;;;;;;;0.35;0.17;;;;;;;19.76;100.00;101235.13;10542155;28;20511;-77
2022/08/04 01:47:35;;;;;;;0.20;0.20;;;;;;;19.47;100.00;101236.19;10512973;28;20052;-77
2022/08/04 01:52:38;;;;;;;3.97;0.20;;;;;;;19.43;100.00;101231.84;10544000;28;20514;-77
2022/08/04 01:57:48;;;;;;;0.20;0.20;;;;;;;19.21;100.00;101231.94;10526996;28;20376;-77
2022/08/04 02:02:50;;;;;;;0.38;0.38;;;;;;;19.37;100.00;101226.66;10543804;28;20055;-77
2022/08/04 02:08:47;;;;;;;0.75;0.38;;;;;;;19.97;100.00;101211.47;10530043;28;20054;-76
2022/08/04 02:14:11;;;;;;;0.40;0.38;;;;;;;20.17;100.00;101197.31;10423548;28;20048;-76
2022/08/04 02:19:34;;;;;;;0.38;0.17;;;;;;;20.32;100.00;101192.81;10536025;28;20050;-77
2022/08/04 02:24:55;;;;;;;2.42;0.45;;;;;;;20.76;100.00;101175.78;10543004;28;20040;-77
2022/08/04 02:30:03;;;;;;;4.88;0.43;;;;;;;20.58;100.00;101175.09;10533917;28;20031;-77
2022/08/04 02:35:14;;;;;;;0.47;0.35;;;;;;;20.60;100.00;101175.09;10543718;28;20062;-77
2022/08/04 02:40:20;;;;;;;6.45;1.75;;;;;;;20.89;100.00;101168.66;10542214;28;20055;-77
2022/08/04 02:45:24;;;;;;;3.92;0.52;;;;;;;21.09;100.00;101155.31;10524806;28;20056;-77
2022/08/04 02:50:27;;;;;;;0.30;0.20;;;;;;;20.96;100.00;101158.97;10542538;28;20064;-78
2022/08/04 02:55:32;;;;;;;0.35;0.25;;;;;;;21.00;100.00;101150.19;10523878;28;20068;-77
2022/08/04 03:00:34;;;;;;;0.00;0.00;;;;;;;21.10;100.00;101141.31;10531090;28;20477;-77
2022/08/04 03:05:53;;;;;;;0.55;0.10;;;;;;;20.98;100.00;101142.34;10539350;28;20049;-77
2022/08/04 03:11:27;;;;;;;0.47;0.17;;;;;;;21.14;100.00;101136.91;10528049;28;20052;-77
2022/08/04 03:16:37;;;;;;;0.00;0.00;;;;;;;21.12;100.00;101134.28;10523803;28;20047;-77
2022/08/04 03:21:57;;;;;;;1.80;0.13;;;;;;;21.17;100.00;101129.88;10541555;28;20130;-77
2022/08/04 03:27:21;;;;;;;1.80;0.43;;;;;;;21.48;100.00;101123.28;10540625;28;20111;-78
2022/08/04 03:32:41;;;;;;;0.22;0.00;;;;;;;21.40;100.00;101115.53;10527746;28;20048;-78
2022/08/04 03:38:21;;;;;;;0.10;0.10;;;;;;;21.52;100.00;101117.97;10515649;28;20048;-77
2022/08/04 03:44:00;;;;;;;0.20;0.20;;;;;;;21.75;100.00;101108.88;10533348;28;20036;-78
2022/08/04 03:49:50;;;;;;;0.35;0.10;;;;;;;21.91;100.00;101098.97;10538103;28;20478;-78
2022/08/04 03:55:10;;;;;;;0.52;0.30;;;;;;;21.93;100.00;101107.69;10494533;28;20050;-78
2022/08/04 04:00:35;;;;;;;0.40;0.40;;;;;;;22.01;100.00;101097.03;10515405;28;20051;-77
2022/08/04 04:05:51;;;;;;;1.55;0.77;;;;;;;21.95;100.00;101092.78;10529649;28;20063;-77
2022/08/04 04:11:35;;;;;;;0.25;0.20;;;;;;;22.15;100.00;101087.13;10539426;28;20124;-78
2022/08/04 04:17:27;;;;;;;2.35;0.63;;;;;;;22.15;100.00;101087.13;10522410;28;20474;-78
2022/08/04 04:22:34;;;;;;;0.47;0.17;;;;;;;22.18;100.00;101087.09;10530107;28;20040;-78
2022/08/04 04:27:50;;;;;;;0.28;0.20;;;;;;;22.25;100.00;101089.59;10522796;28;20441;-78
2022/08/04 04:33:24;;;;;;;0.20;0.10;;;;;;;22.11;100.00;101095.97;10521292;28;20067;-77
2022/08/04 04:38:41;;;;;;;0.35;0.35;;;;;;;22.12;100.00;101089.84;10508098;28;20051;-77
2022/08/04 04:44:02;;;;;;;0.10;0.10;;;;;;;22.02;100.00;101093.50;10533196;28;20523;-78
2022/08/04 04:49:41;;;;;;;1.08;0.45;;;;;;;21.77;100.00;101091.38;10503581;28;20082;-78
2022/08/04 04:54:51;;;;;;;0.35;0.22;;;;;;;21.62;100.00;101102.13;10521832;28;20410;-78
2022/08/04 05:00:04;;;;;;;0.60;0.45;;;;;;;21.70;100.00;101105.47;10525233;28;20082;-77
2022/08/04 05:05:28;;;;;;;0.32;0.03;;;;;;;21.62;100.00;101125.72;10530321;28;20036;-78
2022/08/04 05:10:48;;;;;;;0.00;0.00;;;;;;;21.64;100.00;101116.94;10535624;28;20121;-78
2022/08/04 05:15:53;;;;;;;0.43;0.08;;;;;;;21.83;100.00;101114.84;10540650;28;20066;-79
2022/08/04 05:21:17;;;;;;;0.00;0.00;;;;;;;22.31;100.00;101099.94;10532184;28;20417;-79
2022/08/04 05:26:24;;;;;;;0.10;0.10;;;;;;;22.48;100.00;101103.16;10535970;28;20506;-78
2022/08/04 05:31:36;;;;;;;1.27;0.45;;;;;;;22.72;100.00;101106.16;10525161;28;20150;-78
2022/08/04 05:36:45;;;;;;;0.85;0.52;;;;;;;22.78;100.00;101103.38;10539154;28;20041;-78
2022/08/04 05:41:49;;;;;;;0.20;0.20;;;;;;;23.10;100.00;101095.66;10550542;28;20059;-78
2022/08/04 05:47:03;;;;;;;0.22;0.22;;;;;;;23.51;100.00;101093.84;10536840;28;20050;-78
2022/08/04 05:52:06;;;;;;;0.47;0.43;;;;;;;23.77;100.00;101084.41;10539143;28;20457;-79
2022/08/04 05:57:08;;;;;;;0.00;0.00;;;;;;;24.04;100.00;101081.97;10547163;28;20040;-79
2022/08/04 06:02:11;;;;;;;3.95;0.45;;;;;;;24.02;100.00;101079.38;10521755;28;20048;-78
2022/08/04 06:07:13;;;;;;;0.77;0.43;;;;;;;24.16;100.00;101071.09;10524323;28;20459;-79
2022/08/04 06:12:20;;;;;;;0.63;0.35;;;;;;;24.36;100.00;101075.81;10541333;28;20082;-79
2022/08/04 06:17:56;;;;;;;0.95;0.70;;;;;;;24.60;100.00;101081.25;10523004;28;20479;-78
2022/08/04 06:23:19;;;;;;;0.17;0.08;;;;;;;24.67;100.00;101097.75;10533878;28;20102;-78
2022/08/04 06:28:22;;;;;;;0.52;0.40;;;;;;;24.59;100.00;101110.25;10525537;28;20460;-78
2022/08/04 06:33:32;;;;;;;0.82;0.30;;;;;;;24.45;100.00;101124.69;10512629;28;20044;-77
2022/08/04 06:38:55;;;;;;;0.10;0.10;;;;;;;24.52;100.00;101106.94;10525416;28;20044;-78
2022/08/04 06:44:02;;;;;;;0.77;0.32;;;;;;;24.63;100.00;101139.09;10525462;28;20044;-77
2022/08/04 06:49:04;;;;;;;0.82;0.63;;;;;;;24.67;100.00;101135.50;10542536;28;20075;-78
2022/08/04 06:54:06;;;;;;;0.57;0.30;;;;;;;24.94;100.00;101135.56;10542986;28;20081;-78
2022/08/04 07:00:01;;;;;;;0.22;0.22;;;;;;;25.03;100.00;101126.50;10530504;28;20051;-78
2022/08/04 07:05:05;;;;;;;0.15;0.15;;;;;;;25.39;100.00;101122.78;10519020;28;20403;-78
2022/08/04 07:10:10;;;;;;;0.57;0.20;;;;;;;25.62;100.00;101125.53;10504687;28;20047;-78
2022/08/04 07:15:20;;;;;;;0.30;0.30;;;;;;;26.59;100.00;101108.03;10510594;28;20048;-79
2022/08/04 07:20:22;;;;;;;6.32;1.67;;;;;;;26.60;100.00;101108.88;10511143;28;20036;-78
2022/08/04 07:25:35;;;;;;;0.45;0.40;;;;;;;26.95;100.00;101104.06;10540181;28;20388;-79
2022/08/04 07:30:57;;;;;;;0.17;0.17;;;;;;;27.64;100.00;101110.09;10542103;28;20052;-78
2022/08/04 07:35:59;;;;;;;0.82;0.47;;;;;;;27.08;100.00;101117.63;10524469;28;20062;-78
2022/08/04 07:41:11;;;;;;;0.63;0.38;;;;;;;27.34;100.00;101116.56;10520894;28;20046;-78
2022/08/04 07:46:34;;;;;;;0.25;0.20;;;;;;;27.51;100.00;101113.28;10525264;28;20089;-79
2022/08/04 07:51:36;;;;;;;0.20;0.20;;;;;;;28.83;100.00;101118.06;10519847;28;20069;-79
2022/08/04 07:56:40;;;;;;;5.00;1.35;;;;;;;28.75;96.82;101123.75;10524739;28;20047;-78
2022/08/04 08:01:42;;;;;;;0.77;0.45;;;;;;;28.69;85.87;101121.38;10540351;28;20054;-79
2022/08/04 08:06:43;;;;;;;1.35;0.60;;;;;;;28.57;86.87;101121.91;10510414;28;20051;-78
2022/08/04 08:11:47;;;;;;;4.32;0.40;;;;;;;28.61;82.82;101126.16;10504753;28;20048;-80
2022/08/04 08:17:08;;;;;;;0.08;0.08;;;;;;;29.12;88.05;101129.91;10522916;28;20491;-79
2022/08/04 08:22:12;;;;;;;0.25;0.25;;;;;;;29.96;87.07;101116.97;10539600;28;20039;-79
2022/08/04 08:27:40;;;;;;;0.20;0.20;;;;;;;30.03;91.19;101115.69;10522107;28;20131;-79
2022/08/04 08:32:57;;;;;;;1.13;0.30;;;;;;;30.05;79.74;101112.00;10546213;28;20066;-78
2022/08/04 08:38:04;;;;;;;1.10;0.47;;;;;;;30.45;75.08;101124.09;10519479;28;20040;-78
2022/08/04 08:43:44;;;;;;;0.50;0.30;;;;;;;30.58;75.54;101119.84;10521039;28;20483;-79
2022/08/04 08:49:24;;;;;;;0.25;0.17;;;;;;;30.63;70.73;101117.81;10464992;28;20067;-79
2022/08/04 08:55:16;;;;;;;0.68;0.47;;;;;;;30.81;68.22;101115.06;10539241;28;20036;-79
2022/08/04 09:00:36;;;;;;;0.50;0.38;;;;;;;30.77;70.55;101118.84;10543407;28;20044;-79
2022/08/04 09:06:03;;;;;;;0.90;0.50;;;;;;;31.39;64.36;101110.03;10529316;28;20028;-79
2022/08/04 09:11:21;;;;;;;0.52;0.38;;;;;;;31.21;66.33;101117.25;10507299;28;20040;-79
2022/08/04 09:16:53;;;;;;;0.27;0.27;;;;;;;30.15;70.71;101123.03;10534101;28;20048;-79
2022/08/04 09:22:37;;;;;;;0.43;0.43;;;;;;;30.68;74.02;101117.56;10519435;28;20083;-79
2022/08/04 09:27:46;;;;;;;0.10;0.10;;;;;;;30.61;65.15;101129.44;10521019;28;20032;-79
2022/08/04 09:33:17;;;;;;;0.90;0.32;;;;;;;30.83;65.95;101124.66;10538349;28;20039;-79
2022/08/04 09:38:48;;;;;;;0.85;0.50;;;;;;;31.96;61.19;101131.47;10521033;28;20033;-79
2022/08/04 09:44:20;;;;;;;0.10;0.00;;;;;;;32.21;70.93;101121.97;10523024;28;20044;-79
2022/08/04 09:50:08;;;;;;;0.40;0.15;;;;;;;31.53;59.05;101143.81;10493364;28;20036;-78
2022/08/04 09:55:30;;;;;;;0.10;0.10;;;;;;;31.47;62.79;101129.91;10525689;28;20032;-79
2022/08/04 10:00:42;;;;;;;1.08;0.50;;;;;;;31.42;64.15;101139.13;10523954;28;20624;-78
2022/08/04 10:06:38;;;;;;;0.60;0.32;;;;;;;31.91;62.01;101138.03;10525204;28;20229;-78
2022/08/04 10:11:53;;;;;;;0.60;0.20;;;;;;;31.61;60.11;101142.41;10524005;28;20506;-78
2022/08/04 10:17:06;;;;;;;8.27;0.60;;;;;;;31.45;59.62;101136.28;10507111;28;20055;-78
2022/08/04 10:22:16;;;;;;;0.55;0.47;;;;;;;32.01;66.10;101128.53;10507539;28;20131;-79
2022/08/04 10:27:44;;;;;;;0.38;0.20;;;;;;;32.22;61.39;101141.50;10525478;28;20040;-79
2022/08/04 10:32:59;;;;;;;0.43;0.43;;;;;;;31.77;59.81;101152.16;10521430;28;20056;-78
2022/08/04 10:38:18;;;;;;;0.82;0.30;;;;;;;31.24;60.24;101146.38;10529199;28;20115;-78
2022/08/04 10:43:34;;;;;;;0.38;0.30;;;;;;;32.31;57.57;101140.94;10530516;28;20132;-78
2022/08/04 10:48:53;;;;;;;2.03;1.02;;;;;;;31.46;60.02;101148.66;10511276;28;20408;-78
2022/08/04 10:54:01;;;;;;;1.23;0.60;;;;;;;30.60;62.77;101157.00;10525476;28;20044;-78
2022/08/04 10:59:07;;;;;;;0.10;0.10;;;;;;;30.48;65.53;101155.84;10510399;28;20101;-78
2022/08/04 11:04:24;;;;;;;0.22;0.10;;;;;;;30.38;66.14;101152.84;10525249;28;20039;-78
2022/08/04 11:09:30;;;;;;;0.20;0.10;;;;;;;30.02;66.29;101170.63;10526215;28;20086;-79
2022/08/04 11:14:38;;;;;;;0.45;0.20;;;;;;;29.65;66.15;101183.09;10487818;28;20048;-79
2022/08/04 11:19:55;;;;;;;0.38;0.10;;;;;;;29.08;66.86;101225.63;10529618;28;20048;-78
2022/08/04 11:25:21;;;;;;;0.25;0.25;;;;;;;28.42;78.75;101259.47;10504459;28;20047;-79
2022/08/04 11:30:29;;;;;;;0.80;0.68;;;;;;;26.21;100.00;101311.00;10505050;28;20036;-79
2022/08/04 11:36:00;;;;;;;0.38;0.38;;;;;;;25.09;100.00;101360.97;10526062;28;20055;-79
2022/08/04 11:41:16;;;;;;;2.28;0.80;;;;;;;23.98;100.00;101383.00;10506520;28;20052;-78
2022/08/04 11:46:25;;;;;;;0.30;0.30;;;;;;;23.96;100.00;101358.47;10503321;28;20047;-78
2022/08/04 11:51:32;;;;;;;0.20;0.20;;;;;;;23.85;100.00;101366.56;10511314;28;20457;-78
2022/08/04 11:56:34;;;;;;;0.17;0.10;;;;;;;23.89;100.00;101367.38;10526466;28;20050;-78
2022/08/04 12:02:09;;;;;;;0.15;0.15;;;;;;;23.84;100.00;101364.84;10506457;28;20386;-78
2022/08/04 12:07:43;;;;;;;0.22;0.20;;;;;;;23.82;100.00;101353.50;10505297;28;20056;-78
2022/08/04 12:13:08;;;;;;;0.40;0.30;;;;;;;24.17;100.00;101333.44;10507621;28;20039;-78
2022/08/04 12:18:20;;;;;;;1.30;0.98;;;;;;;24.12;100.00;101314.25;10508826;28;20040;-78
2022/08/04 12:23:25;;;;;;;0.35;0.20;;;;;;;24.13;100.00;101334.38;10510854;28;20053;-78
2022/08/04 12:28:38;;;;;;;0.57;0.30;;;;;;;24.01;100.00;101377.69;10527335;28;20059;-79
2022/08/04 12:34:08;;;;;;;0.38;0.35;;;;;;;23.82;100.00;101381.56;10527826;28;20040;-77
2022/08/04 12:39:18;;;;;;;0.55;0.30;;;;;;;24.02;100.00;101363.59;10525137;28;20498;-78
2022/08/04 12:44:20;;;;;;;0.30;0.20;;;;;;;24.01;100.00;101347.84;10509786;28;20433;-78
2022/08/04 12:49:47;;;;;;;0.27;0.27;;;;;;;23.80;100.00;101363.19;10528242;28;20048;-78
2022/08/04 12:55:04;;;;;;;0.22;0.22;;;;;;;23.89;100.00;101335.81;10530253;28;20085;-78
2022/08/04 13:00:07;;;;;;;0.63;0.38;;;;;;;24.22;100.00;101341.22;10528643;28;20051;-78
2022/08/04 13:05:11;;;;;;;0.10;0.10;;;;;;;24.43;100.00;101325.78;10528621;28;20480;-78
2022/08/04 13:10:21;;;;;;;3.53;0.77;;;;;;;25.43;100.00;101319.59;10527306;28;20046;-78
2022/08/04 13:15:32;;;;;;;1.10;0.25;;;;;;;25.00;100.00;101304.06;10512908;28;20036;-78
2022/08/04 13:20:48;;;;;;;0.20;0.20;;;;;;;25.49;100.00;101285.13;10511993;28;20043;-78
2022/08/04 13:25:52;;;;;;;0.30;0.30;;;;;;;24.97;100.00;101280.44;10516162;28;20044;-78
2022/08/04 13:31:18;;;;;;;1.05;0.43;;;;;;;25.11;100.00;101293.22;10502286;28;20487;-78
2022/08/04 13:36:24;;;;;;;0.32;0.32;;;;;;;25.06;100.00;101286.38;10514745;28;20032;-79
2022/08/04 13:41:28;;;;;;;0.08;0.08;;;;;;;25.31;100.00;101300.56;10514771;28;20048;-77
2022/08/04 13:46:35;;;;;;;0.13;0.13;;;;;;;25.38;100.00;101287.19;10515069;28;20052;-78
2022/08/04 13:51:38;;;;;;;0.20;0.20;;;;;;;25.20;100.00;101286.84;10535316;28;20410;-78
2022/08/04 13:57:01;;;;;;;0.10;0.10;;;;;;;25.39;100.00;101296.84;10514930;28;20044;-79
2022/08/04 14:02:14;;;;;;;0.00;0.00;;;;;;;25.57;100.00;101290.16;10533124;28;20036;-78
2022/08/04 14:07:17;;;;;;;10.25;0.82;;;;;;;25.37;100.00;101288.09;10530945;28;20457;-79
2022/08/04 14:12:23;;;;;;;0.80;0.35;;;;;;;25.89;100.00;101304.13;10510160;28;20441;-78
2022/08/04 14:17:44;;;;;;;0.10;0.10;;;;;;;26.57;100.00;101300.09;10508852;28;20063;-78
2022/08/04 14:22:49;;;;;;;0.95;0.35;;;;;;;26.66;100.00;101293.63;10530611;28;20410;-79
2022/08/04 14:27:54;;;;;;;1.45;0.20;;;;;;;26.62;100.00;101297.28;10510143;28;20063;-78
2022/08/04 14:33:05;;;;;;;0.22;0.15;;;;;;;26.56;100.00;101285.16;10531407;28;20077;-78
2022/08/04 14:38:42;;;;;;;0.57;0.20;;;;;;;26.75;100.00;101260.72;10514187;28;20043;-78
2022/08/04 14:43:50;;;;;;;0.28;0.25;;;;;;;26.89;100.00;101261.13;10512444;28;20568;-79
2022/08/04 14:49:06;;;;;;;0.20;0.20;;;;;;;26.84;100.00;101265.72;10578142;28;20506;-78
2022/08/04 14:54:13;;;;;;;0.30;0.30;;;;;;;26.92;100.00;101258.34;10545015;28;20047;-78
2022/08/04 14:59:19;;;;;;;2.30;0.43;;;;;;;26.86;100.00;101258.56;10537752;28;20036;-79
2022/08/04 15:04:23;;;;;;;1.08;0.70;;;;;;;27.18;100.00;101264.44;10558878;28;20040;-79
2022/08/04 15:09:25;;;;;;;0.77;0.32;;;;;;;27.14;100.00;101261.97;10529206;28;20047;-79
2022/08/04 15:14:27;;;;;;;0.45;0.45;;;;;;;26.89;100.00;101261.13;10544525;28;20047;-78
2022/08/04 15:19:39;;;;;;;0.17;0.17;;;;;;;26.97;100.00;101252.03;10541422;28;20044;-79
2022/08/04 15:24:40;;;;;;;0.08;0.08;;;;;;;27.62;100.00;101247.78;10546409;28;20052;-79
2022/08/04 15:29:46;;;;;;;1.92;0.82;;;;;;;27.20;100.00;101248.50;10572725;28;20398;-78
2022/08/04 15:35:05;;;;;;;0.10;0.10;;;;;;;26.95;100.00;101240.66;10560026;28;20039;-79
2022/08/04 15:40:17;;;;;;;0.57;0.47;;;;;;;27.10;100.00;101240.06;10579536;28;20502;-79
2022/08/04 15:45:58;;;;;;;0.43;0.43;;;;;;;27.51;100.00;101250.88;10551074;28;20479;-79
2022/08/04 15:51:25;;;;;;;0.80;0.55;;;;;;;27.42;100.00;101248.56;10540410;28;20047;-79
2022/08/04 15:56:42;;;;;;;0.43;0.30;;;;;;;27.22;100.00;101249.31;10519126;28;20039;-79
2022/08/04 16:02:31;;;;;;;0.03;0.03;;;;;;;27.34;100.00;101251.47;10528356;28;20043;-79
2022/08/04 16:07:57;;;;;;;8.05;0.45;;;;;;;27.32;100.00;101249.81;10542335;28;20483;-79
2022/08/04 16:13:14;;;;;;;0.17;0.17;;;;;;;27.23;100.00;101254.53;10522528;28;20475;-78
2022/08/04 16:18:29;;;;;;;0.97;0.30;;;;;;;26.98;100.00;101248.47;10525309;28;20047;-79
2022/08/04 16:23:52;;;;;;;0.43;0.38;;;;;;;26.99;100.00;101239.63;10550630;28;20529;-79
2022/08/04 16:28:57;;;;;;;0.03;0.03;;;;;;;26.95;100.00;101241.53;10518809;28;20051;-79
2022/08/04 16:33:59;;;;;;;0.80;0.65;;;;;;;27.12;100.00;101237.34;10536131;28;20093;-79
2022/08/04 16:39:26;;;;;;;1.08;0.55;;;;;;;27.30;100.00;101231.38;10526988;28;20032;-79
2022/08/04 16:44:30;;;;;;;0.35;0.30;;;;;;;27.34;100.00;101224.16;10562130;28;20528;-79
2022/08/04 16:50:01;;;;;;;0.03;0.00;;;;;;;27.45;100.00;101224.63;10535001;28;20074;-79
2022/08/04 16:55:03;;;;;;;0.10;0.10;;;;;;;27.15;100.00;101230.16;10549163;28;20044;-79
2022/08/04 17:00:06;;;;;;;0.15;0.15;;;;;;;27.03;100.00;101238.56;10537549;28;20055;-79
2022/08/04 17:05:22;;;;;;;1.27;0.70;;;;;;;26.67;100.00;101233.72;10525187;28;20044;-79
2022/08/04 17:10:43;;;;;;;0.05;0.05;;;;;;;26.47;100.00;101235.31;10543005;28;20042;-79
2022/08/04 17:15:47;;;;;;;0.10;0.10;;;;;;;26.48;99.09;101242.28;10567074;28;20086;-79
2022/08/04 17:20:50;;;;;;;0.00;0.00;;;;;;;26.44;98.43;101243.34;10563404;28;20055;-79
2022/08/04 17:26:21;;;;;;;0.45;0.17;;;;;;;26.44;100.00;101235.41;10516237;28;20046;-79
2022/08/04 17:31:40;;;;;;;0.05;0.00;;;;;;;26.36;100.00;101237.44;10536463;28;20048;-79
2022/08/04 17:36:42;;;;;;;0.13;0.03;;;;;;;26.12;100.00;101234.75;10557499;28;20050;-79
2022/08/04 17:41:45;;;;;;;0.20;0.20;;;;;;;26.35;100.00;101243.66;10538192;28;20059;-79
2022/08/04 17:46:49;;;;;;;0.40;0.20;;;;;;;25.92;94.19;101248.56;10563157;28;20083;-79
2022/08/04 17:51:52;;;;;;;0.05;0.05;;;;;;;25.84;98.73;101251.47;10554349;28;20067;-79
2022/08/04 17:57:19;;;;;;;1.42;0.45;;;;;;;25.26;98.67;101265.56;10562937;28;20123;-79
2022/08/04 18:02:32;;;;;;;0.00;0.00;;;;;;;24.98;100.00;101268.13;10515767;28;20132;-78
2022/08/04 18:07:38;;;;;;;0.10;0.10;;;;;;;24.57;100.00;101276.25;10521999;28;20077;-79
2022/08/04 18:13:07;;;;;;;0.10;0.10;;;;;;;24.28;98.19;101295.41;10536249;28;20044;-78
2022/08/04 18:18:19;;;;;;;0.05;0.05;;;;;;;24.21;97.05;101297.38;10523749;28;20113;-77
2022/08/04 18:23:23;;;;;;;0.00;0.00;;;;;;;23.81;96.66;101311.44;10536388;28;20040;-79
2022/08/04 18:28:33;;;;;;;0.00;0.00;;;;;;;23.73;100.00;101320.38;10535321;28;20076;-78
2022/08/04 18:33:35;;;;;;;0.65;0.22;;;;;;;23.54;98.73;101326.94;10519899;28;20056;-77
2022/08/04 18:38:42;;;;;;;0.00;0.00;;;;;;;23.47;100.00;101322.72;10538770;28;20036;-77
2022/08/04 18:43:59;;;;;;;0.25;0.15;;;;;;;23.14;100.00;101332.09;10535528;28;20054;-77
2022/08/04 18:49:03;;;;;;;0.00;0.00;;;;;;;22.99;100.00;101329.75;10549466;28;20042;-77
2022/08/04 18:54:06;;;;;;;0.10;0.10;;;;;;;22.98;100.00;101335.91;10541720;28;20050;-75
2022/08/04 18:59:09;;;;;;;0.20;0.15;;;;;;;22.59;100.00;101355.00;10536409;28;20025;-76
2022/08/04 19:04:11;;;;;;;1.27;0.70;;;;;;;22.49;100.00;101343.78;10515507;28;20600;-76
2022/08/04 19:09:34;;;;;;;0.10;0.05;;;;;;;22.43;100.00;101364.91;10514648;28;20039;-76
2022/08/04 19:14:52;;;;;;;0.10;0.10;;;;;;;22.30;100.00;101352.84;10534385;28;20050;-76
2022/08/04 19:19:59;;;;;;;0.30;0.30;;;;;;;22.21;100.00;101368.72;10533161;28;20569;-76
2022/08/04 19:25:01;;;;;;;0.40;0.30;;;;;;;22.05;100.00;101376.81;10534215;28;20083;-76
2022/08/04 19:30:03;;;;;;;0.05;0.05;;;;;;;22.03;100.00;101386.44;10561425;28;20040;-77
2022/08/04 19:35:05;;;;;;;0.13;0.13;;;;;;;21.72;100.00;101392.09;10524750;28;20146;-76
2022/08/04 19:40:14;;;;;;;0.45;0.28;;;;;;;21.75;100.00;101399.94;10540583;28;20044;-76
2022/08/04 19:45:16;;;;;;;0.15;0.15;;;;;;;21.75;100.00;101394.72;10519465;28;20040;-76
2022/08/04 19:50:18;;;;;;;0.20;0.20;;;;;;;21.65;100.00;101401.81;10505165;28;20104;-77
2022/08/04 19:55:23;;;;;;;0.65;0.50;;;;;;;21.49;100.00;101401.09;10546141;28;20050;-76
2022/08/04 20:00:39;;;;;;;0.00;0.00;;;;;;;21.34;100.00;101398.63;10527922;28;20062;-76
2022/08/04 20:05:54;;;;;;;1.17;0.20;;;;;;;21.26;100.00;101403.97;10515957;28;20472;-77
2022/08/04 20:10:56;;;;;;;0.00;0.00;;;;;;;21.06;100.00;101406.81;10536923;28;20808;-76
2022/08/04 20:15:59;;;;;;;0.00;0.00;;;;;;;20.96;100.00;101400.78;10519608;28;20135;-77
2022/08/04 20:21:04;;;;;;;0.77;0.10;;;;;;;20.96;100.00;101410.41;10516789;28;20397;-77
2022/08/04 20:26:20;;;;;;;0.00;0.00;;;;;;;20.89;100.00;101431.38;10542563;28;20036;-77
2022/08/04 20:31:22;;;;;;;0.13;0.13;;;;;;;20.99;100.00;101426.06;10523922;28;20044;-77
2022/08/04 20:36:32;;;;;;;0.38;0.05;;;;;;;21.09;100.00;101432.97;10547117;28;20050;-77
2022/08/04 20:41:33;;;;;;;0.00;0.00;;;;;;;21.03;100.00;101433.03;10528725;28;20044;-77
2022/08/04 20:46:37;;;;;;;0.10;0.10;;;;;;;21.01;100.00;101440.03;10518804;28;20044;-77
2022/08/04 20:51:42;;;;;;;0.10;0.10;;;;;;;20.98;100.00;101447.91;10563530;28;20499;-77
2022/08/04 20:56:43;;;;;;;0.10;0.10;;;;;;;21.14;100.00;101451.28;10518427;28;20048;-77
2022/08/04 21:01:51;;;;;;;0.10;0.10;;;;;;;21.03;100.00;101441.75;10503036;28;20101;-77
2022/08/04 21:06:59;;;;;;;0.00;0.00;;;;;;;21.03;100.00;101459.25;10506407;28;20541;-78
2022/08/04 21:12:02;;;;;;;0.20;0.10;;;;;;;21.12;100.00;101467.00;10534297;28;20119;-77
2022/08/04 21:17:04;;;;;;;0.38;0.13;;;;;;;20.93;100.00;101458.41;10534979;28;20074;-76
2022/08/04 21:22:08;;;;;;;0.45;0.28;;;;;;;21.02;100.00;101471.44;10529200;28;20056;-77
2022/08/04 21:27:11;;;;;;;0.20;0.20;;;;;;;20.92;100.00;101475.03;10522105;28;20123;-77
2022/08/04 21:32:12;;;;;;;0.10;0.10;;;;;;;20.92;100.00;101465.44;10533901;28;20048;-77
2022/08/04 21:37:14;;;;;;;0.00;0.00;;;;;;;20.81;100.00;101480.38;10516616;28;20121;-77
2022/08/04 21:42:17;;;;;;;0.13;0.10;;;;;;;20.81;100.00;101511.78;10535430;28;20060;-77
2022/08/04 21:47:38;;;;;;;0.22;0.00;;;;;;;20.76;100.00;101513.56;10530031;28;20032;-77
2022/08/04 21:52:49;;;;;;;0.10;0.10;;;;;;;20.74;100.00;101520.53;10523540;28;20086;-77
2022/08/04 21:57:52;;;;;;;0.10;0.10;;;;;;;20.46;100.00;101549.47;10555062;28;20046;-78
2022/08/04 22:02:56;;;;;;;0.00;0.00;;;;;;;20.41;100.00;101574.81;10541264;28;20380;-78
2022/08/04 22:07:57;;;;;;;0.28;0.17;;;;;;;19.73;100.00;101630.72;10545842;28;20050;-77
2022/08/04 22:13:00;;;;;;;0.30;0.30;;;;;;;19.66;100.00;101650.78;10520087;28;20048;-78
2022/08/04 22:18:07;;;;;;;0.17;0.17;;;;;;;19.71;100.00;101636.81;10521725;28;20048;-78
2022/08/04 22:23:09;;;;;;;0.17;0.17;;;;;;;19.69;100.00;101626.38;10554462;28;20282;-76
2022/08/04 22:28:19;;;;;;;0.10;0.10;;;;;;;19.14;100.00;101637.66;10537665;28;20044;-76
2022/08/04 22:33:25;;;;;;;0.30;0.20;;;;;;;18.52;100.00;101676.56;10553879;28;20036;-77
2022/08/04 22:38:47;;;;;;;0.20;0.20;;;;;;;18.49;100.00;101638.28;10535263;28;20101;-76
2022/08/04 22:43:59;;;;;;;0.68;0.50;;;;;;;18.43;100.00;101600.88;10541711;28;20070;-77
2022/08/04 22:49:01;;;;;;;0.30;0.25;;;;;;;18.33;100.00;101584.28;10522982;28;20044;-76
2022/08/04 22:54:03;;;;;;;0.32;0.32;;;;;;;18.29;100.00;101609.47;10535522;28;20074;-76
2022/08/04 22:59:13;;;;;;;0.10;0.10;;;;;;;18.32;100.00;101609.50;10514368;28;20039;-76
2022/08/04 23:04:15;;;;;;;0.20;0.20;;;;;;;18.31;100.00;101602.53;10560851;28;20044;-76
2022/08/04 23:09:17;;;;;;;0.30;0.30;;;;;;;17.99;100.00;101725.75;10525078;28;20047;-75
2022/08/04 23:14:51;;;;;;;1.30;0.85;;;;;;;18.21;100.00;101736.34;10520905;28;20070;-76
2022/08/04 23:19:58;;;;;;;0.43;0.33;;;;;;;18.15;100.00;101720.66;10521510;28;20093;-76
2022/08/04 23:31:44;;;;;;;0.10;0.10;;;;;;;18.31;100.00;101675.59;10326587;28;20054;-76
2022/08/04 23:37:00;;;;;;;0.28;0.10;;;;;;;18.15;100.00;101648.53;10363699;28;20380;-76
2022/08/04 23:42:03;;;;;;;0.28;0.28;;;;;;;18.04;100.00;101632.84;10552010;28;20048;-76
2022/08/04 23:47:10;;;;;;;0.30;0.20;;;;;;;17.90;100.00;101624.00;10522870;28;20044;-75
2022/08/04 23:52:31;;;;;;;0.68;0.30;;;;;;;17.94;100.00;101658.78;10565450;28;20079;-76
2022/08/04 23:57:35;;;;;;;0.30;0.30;;;;;;;17.81;100.00;101663.88;10523911;28;20050;-76